sensor_id;sensor_type;location;lat;lon;timestamp;P1;durP1;ratioP1;P2;durP2;ratioP2
19861;SDS011;10093;48.148;8.542;2022-12-07T00:00:25;17.85;;;9.02;;
19861;SDS011;10093;48.148;8.542;2022-12-07T00:02:50;18.10;;;9.55;;
19861;SDS011;10093;48.148;8.542;2022-12-07T00:05:16;16.25;;;8.98;;
19861;SDS011;10093;48.148;8.542;2022-12-07T00:07:41;17.35;;;7.97;;
19861;SDS011;10093;48.148;8.542;2022-12-07T00:10:07;13.60;;;7.30;;
19861;SDS011;10093;48.148;8.542;2022-12-07T00:12:33;15.65;;;7.35;;
19861;SDS011;10093;48.148;8.542;2022-12-07T00:14:58;13.00;;;7.18;;
19861;SDS011;10093;48.148;8.542;2022-12-07T00:17:24;11.40;;;7.10;;
19861;SDS011;10093;48.148;8.542;2022-12-07T00:19:49;10.80;;;6.68;;
19861;SDS011;10093;48.148;8.542;2022-12-07T00:22:15;10.60;;;6.28;;
19861;SDS011;10093;48.148;8.542;2022-12-07T00:24:41;9.95;;;5.82;;
19861;SDS011;10093;48.148;8.542;2022-12-07T00:27:06;9.35;;;6.20;;
19861;SDS011;10093;48.148;8.542;2022-12-07T00:29:32;13.00;;;6.40;;
19861;SDS011;10093;48.148;8.542;2022-12-07T00:31:57;11.00;;;6.38;;
19861;SDS011;10093;48.148;8.542;2022-12-07T00:34:23;10.63;;;6.40;;
19861;SDS011;10093;48.148;8.542;2022-12-07T00:36:49;11.40;;;5.95;;
19861;SDS011;10093;48.148;8.542;2022-12-07T00:39:15;10.50;;;6.90;;
19861;SDS011;10093;48.148;8.542;2022-12-07T00:41:41;11.57;;;7.07;;
19861;SDS011;10093;48.148;8.542;2022-12-07T00:44:07;11.38;;;6.45;;
19861;SDS011;10093;48.148;8.542;2022-12-07T00:46:32;13.20;;;7.18;;
19861;SDS011;10093;48.148;8.542;2022-12-07T00:48:58;12.43;;;6.90;;
19861;SDS011;10093;48.148;8.542;2022-12-07T00:51:24;16.92;;;8.02;;
19861;SDS011;10093;48.148;8.542;2022-12-07T00:53:50;13.65;;;7.63;;
19861;SDS011;10093;48.148;8.542;2022-12-07T00:56:18;11.88;;;6.63;;
19861;SDS011;10093;48.148;8.542;2022-12-07T00:58:52;11.05;;;6.72;;
19861;SDS011;10093;48.148;8.542;2022-12-07T01:01:20;14.15;;;7.53;;
19861;SDS011;10093;48.148;8.542;2022-12-07T01:03:46;12.43;;;7.28;;
19861;SDS011;10093;48.148;8.542;2022-12-07T01:06:13;12.43;;;6.95;;
19861;SDS011;10093;48.148;8.542;2022-12-07T01:08:40;13.50;;;7.28;;
19861;SDS011;10093;48.148;8.542;2022-12-07T01:11:07;13.50;;;7.07;;
19861;SDS011;10093;48.148;8.542;2022-12-07T01:13:34;12.52;;;7.18;;
19861;SDS011;10093;48.148;8.542;2022-12-07T01:16:01;11.80;;;7.18;;
19861;SDS011;10093;48.148;8.542;2022-12-07T01:18:29;14.30;;;6.95;;
19861;SDS011;10093;48.148;8.542;2022-12-07T01:23:43;18.15;;;8.13;;
19861;SDS011;10093;48.148;8.542;2022-12-07T01:26:12;17.65;;;8.00;;
19861;SDS011;10093;48.148;8.542;2022-12-07T01:28:43;12.60;;;7.50;;
19861;SDS011;10093;48.148;8.542;2022-12-07T01:31:12;13.18;;;7.30;;
19861;SDS011;10093;48.148;8.542;2022-12-07T01:33:41;13.52;;;6.95;;
19861;SDS011;10093;48.148;8.542;2022-12-07T01:38:37;13.90;;;7.63;;
19861;SDS011;10093;48.148;8.542;2022-12-07T01:41:03;11.93;;;6.40;;
19861;SDS011;10093;48.148;8.542;2022-12-07T01:43:29;14.90;;;8.38;;
19861;SDS011;10093;48.148;8.542;2022-12-07T01:45:56;11.57;;;6.75;;
19861;SDS011;10093;48.148;8.542;2022-12-07T01:48:26;14.95;;;7.70;;
19861;SDS011;10093;48.148;8.542;2022-12-07T01:50:55;14.77;;;7.97;;
19861;SDS011;10093;48.148;8.542;2022-12-07T01:53:25;14.18;;;7.78;;
19861;SDS011;10093;48.148;8.542;2022-12-07T01:55:53;17.98;;;8.32;;
19861;SDS011;10093;48.148;8.542;2022-12-07T01:58:20;12.73;;;7.68;;
19861;SDS011;10093;48.148;8.542;2022-12-07T02:00:46;13.02;;;8.40;;
19861;SDS011;10093;48.148;8.542;2022-12-07T02:05:43;16.50;;;7.90;;
19861;SDS011;10093;48.148;8.542;2022-12-07T02:08:11;14.27;;;8.10;;
19861;SDS011;10093;48.148;8.542;2022-12-07T02:10:38;16.05;;;7.53;;
19861;SDS011;10093;48.148;8.542;2022-12-07T02:15:46;14.45;;;7.53;;
19861;SDS011;10093;48.148;8.542;2022-12-07T02:24:04;12.07;;;7.43;;
19861;SDS011;10093;48.148;8.542;2022-12-07T02:35:09;12.32;;;7.05;;
19861;SDS011;10093;48.148;8.542;2022-12-07T02:43:06;14.10;;;7.78;;
19861;SDS011;10093;48.148;8.542;2022-12-07T02:45:39;12.93;;;6.78;;
19861;SDS011;10093;48.148;8.542;2022-12-07T02:48:08;11.77;;;6.38;;
19861;SDS011;10093;48.148;8.542;2022-12-07T02:50:36;13.30;;;7.38;;
19861;SDS011;10093;48.148;8.542;2022-12-07T02:53:02;12.43;;;7.07;;
19861;SDS011;10093;48.148;8.542;2022-12-07T02:55:34;15.00;;;7.72;;
19861;SDS011;10093;48.148;8.542;2022-12-07T02:58:10;15.43;;;7.07;;
19861;SDS011;10093;48.148;8.542;2022-12-07T03:01:40;12.70;;;6.75;;
19861;SDS011;10093;48.148;8.542;2022-12-07T03:03:48;15.15;;;7.65;;
19861;SDS011;10093;48.148;8.542;2022-12-07T03:06:28;13.20;;;7.15;;
19861;SDS011;10093;48.148;8.542;2022-12-07T03:11:55;15.48;;;7.38;;
19861;SDS011;10093;48.148;8.542;2022-12-07T03:14:35;14.85;;;7.45;;
19861;SDS011;10093;48.148;8.542;2022-12-07T03:17:08;15.95;;;8.13;;
19861;SDS011;10093;48.148;8.542;2022-12-07T03:19:45;16.42;;;8.13;;
19861;SDS011;10093;48.148;8.542;2022-12-07T03:22:13;13.48;;;7.25;;
19861;SDS011;10093;48.148;8.542;2022-12-07T03:27:13;16.30;;;8.23;;
19861;SDS011;10093;48.148;8.542;2022-12-07T03:32:28;14.07;;;7.45;;
19861;SDS011;10093;48.148;8.542;2022-12-07T03:35:17;15.15;;;7.82;;
19861;SDS011;10093;48.148;8.542;2022-12-07T03:37:52;14.27;;;7.50;;
19861;SDS011;10093;48.148;8.542;2022-12-07T03:40:40;13.33;;;6.83;;
19861;SDS011;10093;48.148;8.542;2022-12-07T03:43:09;14.93;;;7.95;;
19861;SDS011;10093;48.148;8.542;2022-12-07T03:45:42;15.38;;;8.45;;
19861;SDS011;10093;48.148;8.542;2022-12-07T03:51:06;15.52;;;8.15;;
19861;SDS011;10093;48.148;8.542;2022-12-07T03:53:46;14.93;;;7.53;;
19861;SDS011;10093;48.148;8.542;2022-12-07T03:56:19;12.50;;;7.53;;
19861;SDS011;10093;48.148;8.542;2022-12-07T03:58:46;12.52;;;7.35;;
19861;SDS011;10093;48.148;8.542;2022-12-07T04:01:13;12.02;;;7.00;;
19861;SDS011;10093;48.148;8.542;2022-12-07T04:03:39;12.25;;;7.07;;
19861;SDS011;10093;48.148;8.542;2022-12-07T04:06:04;12.82;;;7.35;;
19861;SDS011;10093;48.148;8.542;2022-12-07T04:08:30;10.23;;;6.30;;
19861;SDS011;10093;48.148;8.542;2022-12-07T04:10:56;15.00;;;7.55;;
19861;SDS011;10093;48.148;8.542;2022-12-07T04:13:22;13.60;;;7.20;;
19861;SDS011;10093;48.148;8.542;2022-12-07T04:15:47;9.93;;;6.47;;
19861;SDS011;10093;48.148;8.542;2022-12-07T04:18:13;10.63;;;6.70;;
19861;SDS011;10093;48.148;8.542;2022-12-07T04:20:38;12.40;;;7.13;;
19861;SDS011;10093;48.148;8.542;2022-12-07T04:23:04;11.40;;;6.85;;
19861;SDS011;10093;48.148;8.542;2022-12-07T04:25:30;10.23;;;6.25;;
19861;SDS011;10093;48.148;8.542;2022-12-07T04:27:55;11.50;;;6.50;;
19861;SDS011;10093;48.148;8.542;2022-12-07T04:30:21;14.13;;;7.32;;
19861;SDS011;10093;48.148;8.542;2022-12-07T04:32:46;11.75;;;7.15;;
19861;SDS011;10093;48.148;8.542;2022-12-07T04:35:12;10.40;;;6.45;;
19861;SDS011;10093;48.148;8.542;2022-12-07T04:37:37;10.38;;;6.18;;
19861;SDS011;10093;48.148;8.542;2022-12-07T04:40:05;11.00;;;6.70;;
19861;SDS011;10093;48.148;8.542;2022-12-07T04:42:36;10.80;;;5.97;;
19861;SDS011;10093;48.148;8.542;2022-12-07T04:45:02;12.07;;;6.43;;
19861;SDS011;10093;48.148;8.542;2022-12-07T04:47:28;8.35;;;5.53;;
19861;SDS011;10093;48.148;8.542;2022-12-07T04:49:54;11.10;;;6.35;;
19861;SDS011;10093;48.148;8.542;2022-12-07T04:52:19;9.32;;;5.65;;
19861;SDS011;10093;48.148;8.542;2022-12-07T04:54:45;11.65;;;6.63;;
19861;SDS011;10093;48.148;8.542;2022-12-07T04:57:10;10.07;;;6.10;;
19861;SDS011;10093;48.148;8.542;2022-12-07T04:59:36;10.30;;;6.68;;
19861;SDS011;10093;48.148;8.542;2022-12-07T05:02:01;10.35;;;6.28;;
19861;SDS011;10093;48.148;8.542;2022-12-07T05:04:27;10.43;;;6.22;;
19861;SDS011;10093;48.148;8.542;2022-12-07T05:06:53;10.82;;;6.57;;
19861;SDS011;10093;48.148;8.542;2022-12-07T05:09:18;12.35;;;7.25;;
19861;SDS011;10093;48.148;8.542;2022-12-07T05:11:44;12.02;;;7.18;;
19861;SDS011;10093;48.148;8.542;2022-12-07T05:14:11;11.77;;;7.65;;
19861;SDS011;10093;48.148;8.542;2022-12-07T05:16:37;36.55;;;18.63;;
19861;SDS011;10093;48.148;8.542;2022-12-07T05:19:04;44.47;;;21.90;;
19861;SDS011;10093;48.148;8.542;2022-12-07T05:21:30;37.58;;;18.98;;
19861;SDS011;10093;48.148;8.542;2022-12-07T05:23:55;34.50;;;17.13;;
19861;SDS011;10093;48.148;8.542;2022-12-07T05:26:21;29.52;;;14.77;;
19861;SDS011;10093;48.148;8.542;2022-12-07T05:28:50;21.13;;;11.23;;
19861;SDS011;10093;48.148;8.542;2022-12-07T05:31:16;23.02;;;12.18;;
19861;SDS011;10093;48.148;8.542;2022-12-07T05:33:42;19.33;;;10.68;;
19861;SDS011;10093;48.148;8.542;2022-12-07T05:36:07;27.33;;;17.92;;
19861;SDS011;10093;48.148;8.542;2022-12-07T05:38:33;18.92;;;11.18;;
19861;SDS011;10093;48.148;8.542;2022-12-07T05:41:05;16.30;;;9.57;;
19861;SDS011;10093;48.148;8.542;2022-12-07T05:43:31;14.50;;;8.20;;
19861;SDS011;10093;48.148;8.542;2022-12-07T05:45:57;13.93;;;7.88;;
19861;SDS011;10093;48.148;8.542;2022-12-07T05:48:23;12.98;;;7.22;;
19861;SDS011;10093;48.148;8.542;2022-12-07T05:50:49;13.85;;;8.18;;
19861;SDS011;10093;48.148;8.542;2022-12-07T05:53:16;14.98;;;8.65;;
19861;SDS011;10093;48.148;8.542;2022-12-07T05:55:42;13.73;;;7.75;;
19861;SDS011;10093;48.148;8.542;2022-12-07T05:58:08;17.60;;;9.73;;
19861;SDS011;10093;48.148;8.542;2022-12-07T06:00:54;13.23;;;8.43;;
19861;SDS011;10093;48.148;8.542;2022-12-07T06:03:20;15.93;;;9.13;;
19861;SDS011;10093;48.148;8.542;2022-12-07T06:05:46;15.15;;;8.77;;
19861;SDS011;10093;48.148;8.542;2022-12-07T06:08:12;16.77;;;9.50;;
19861;SDS011;10093;48.148;8.542;2022-12-07T06:10:39;21.15;;;11.15;;
19861;SDS011;10093;48.148;8.542;2022-12-07T06:13:05;16.95;;;9.75;;
19861;SDS011;10093;48.148;8.542;2022-12-07T06:15:30;15.90;;;9.05;;
19861;SDS011;10093;48.148;8.542;2022-12-07T06:17:56;16.15;;;9.77;;
19861;SDS011;10093;48.148;8.542;2022-12-07T06:20:22;18.30;;;9.88;;
19861;SDS011;10093;48.148;8.542;2022-12-07T06:22:47;16.63;;;8.90;;
19861;SDS011;10093;48.148;8.542;2022-12-07T06:25:13;15.90;;;9.45;;
19861;SDS011;10093;48.148;8.542;2022-12-07T06:27:38;14.63;;;8.75;;
19861;SDS011;10093;48.148;8.542;2022-12-07T06:30:04;18.98;;;9.75;;
19861;SDS011;10093;48.148;8.542;2022-12-07T06:32:32;15.77;;;8.85;;
19861;SDS011;10093;48.148;8.542;2022-12-07T06:34:59;14.25;;;8.85;;
19861;SDS011;10093;48.148;8.542;2022-12-07T06:37:24;14.73;;;8.57;;
19861;SDS011;10093;48.148;8.542;2022-12-07T06:39:50;14.00;;;8.43;;
19861;SDS011;10093;48.148;8.542;2022-12-07T06:42:16;17.05;;;8.95;;
19861;SDS011;10093;48.148;8.542;2022-12-07T06:44:41;14.77;;;8.30;;
19861;SDS011;10093;48.148;8.542;2022-12-07T06:47:07;15.05;;;8.73;;
19861;SDS011;10093;48.148;8.542;2022-12-07T06:49:34;15.90;;;8.93;;
19861;SDS011;10093;48.148;8.542;2022-12-07T06:52:00;15.48;;;8.40;;
19861;SDS011;10093;48.148;8.542;2022-12-07T06:54:29;13.80;;;7.72;;
19861;SDS011;10093;48.148;8.542;2022-12-07T06:56:55;15.40;;;8.20;;
19861;SDS011;10093;48.148;8.542;2022-12-07T06:59:21;15.55;;;8.95;;
19861;SDS011;10093;48.148;8.542;2022-12-07T07:01:46;18.92;;;9.55;;
19861;SDS011;10093;48.148;8.542;2022-12-07T07:04:12;16.83;;;8.70;;
19861;SDS011;10093;48.148;8.542;2022-12-07T07:06:38;20.27;;;9.57;;
19861;SDS011;10093;48.148;8.542;2022-12-07T07:09:03;18.48;;;9.20;;
19861;SDS011;10093;48.148;8.542;2022-12-07T07:11:29;18.80;;;8.85;;
19861;SDS011;10093;48.148;8.542;2022-12-07T07:13:54;18.95;;;9.75;;
19861;SDS011;10093;48.148;8.542;2022-12-07T07:16:22;19.38;;;9.60;;
19861;SDS011;10093;48.148;8.542;2022-12-07T07:18:49;31.00;;;9.75;;
19861;SDS011;10093;48.148;8.542;2022-12-07T07:21:15;16.52;;;9.15;;
19861;SDS011;10093;48.148;8.542;2022-12-07T07:23:40;20.20;;;9.98;;
19861;SDS011;10093;48.148;8.542;2022-12-07T07:26:06;18.23;;;9.18;;
19861;SDS011;10093;48.148;8.542;2022-12-07T07:28:31;15.18;;;8.50;;
19861;SDS011;10093;48.148;8.542;2022-12-07T07:30:57;19.58;;;8.75;;
19861;SDS011;10093;48.148;8.542;2022-12-07T07:33:22;22.50;;;10.35;;
19861;SDS011;10093;48.148;8.542;2022-12-07T07:35:48;24.35;;;11.40;;
19861;SDS011;10093;48.148;8.542;2022-12-07T07:38:14;27.92;;;10.57;;
19861;SDS011;10093;48.148;8.542;2022-12-07T07:40:39;15.93;;;9.10;;
19861;SDS011;10093;48.148;8.542;2022-12-07T07:43:05;19.05;;;9.35;;
19861;SDS011;10093;48.148;8.542;2022-12-07T07:45:30;16.63;;;8.85;;
19861;SDS011;10093;48.148;8.542;2022-12-07T07:47:56;1106.55;;;65.85;;
19861;SDS011;10093;48.148;8.542;2022-12-07T07:50:22;566.17;;;60.45;;
19861;SDS011;10093;48.148;8.542;2022-12-07T07:52:47;45.20;;;17.52;;
19861;SDS011;10093;48.148;8.542;2022-12-07T07:55:13;30.38;;;13.75;;
19861;SDS011;10093;48.148;8.542;2022-12-07T07:57:39;61.58;;;13.10;;
19861;SDS011;10093;48.148;8.542;2022-12-07T08:00:07;109.10;;;14.27;;
19861;SDS011;10093;48.148;8.542;2022-12-07T08:02:35;22.48;;;11.73;;
19861;SDS011;10093;48.148;8.542;2022-12-07T08:05:00;31.00;;;11.27;;
19861;SDS011;10093;48.148;8.542;2022-12-07T08:07:26;23.30;;;13.30;;
19861;SDS011;10093;48.148;8.542;2022-12-07T08:09:52;43.58;;;16.98;;
19861;SDS011;10093;48.148;8.542;2022-12-07T08:12:18;85.10;;;10.77;;
19861;SDS011;10093;48.148;8.542;2022-12-07T08:14:43;13.48;;;7.88;;
19861;SDS011;10093;48.148;8.542;2022-12-07T08:17:09;37.10;;;20.98;;
19861;SDS011;10093;48.148;8.542;2022-12-07T08:19:35;11.60;;;8.05;;
19861;SDS011;10093;48.148;8.542;2022-12-07T08:22:00;153.85;;;9.07;;
19861;SDS011;10093;48.148;8.542;2022-12-07T08:24:26;13.95;;;8.05;;
19861;SDS011;10093;48.148;8.542;2022-12-07T08:26:52;212.60;;;10.45;;
19861;SDS011;10093;48.148;8.542;2022-12-07T08:29:18;51.40;;;7.32;;
19861;SDS011;10093;48.148;8.542;2022-12-07T08:31:43;9.15;;;5.85;;
19861;SDS011;10093;48.148;8.542;2022-12-07T08:34:12;8.52;;;5.88;;
19861;SDS011;10093;48.148;8.542;2022-12-07T08:36:38;10.05;;;6.90;;
19861;SDS011;10093;48.148;8.542;2022-12-07T08:39:04;10.43;;;5.90;;
19861;SDS011;10093;48.148;8.542;2022-12-07T08:41:31;23.38;;;18.77;;
19861;SDS011;10093;48.148;8.542;2022-12-07T08:43:56;8.40;;;6.07;;
19861;SDS011;10093;48.148;8.542;2022-12-07T08:46:26;9.82;;;7.32;;
19861;SDS011;10093;48.148;8.542;2022-12-07T08:49:06;6.30;;;5.03;;
19861;SDS011;10093;48.148;8.542;2022-12-07T08:51:43;5.93;;;4.60;;
19861;SDS011;10093;48.148;8.542;2022-12-07T08:54:10;22.13;;;12.68;;
19861;SDS011;10093;48.148;8.542;2022-12-07T08:56:39;4.88;;;4.00;;
19861;SDS011;10093;48.148;8.542;2022-12-07T08:59:05;7.85;;;6.47;;
19861;SDS011;10093;48.148;8.542;2022-12-07T09:01:32;5.80;;;4.72;;
19861;SDS011;10093;48.148;8.542;2022-12-07T09:03:59;6.53;;;5.00;;
19861;SDS011;10093;48.148;8.542;2022-12-07T09:06:24;12.27;;;7.97;;
19861;SDS011;10093;48.148;8.542;2022-12-07T09:08:51;6.15;;;5.25;;
19861;SDS011;10093;48.148;8.542;2022-12-07T09:11:20;5.65;;;4.65;;
19861;SDS011;10093;48.148;8.542;2022-12-07T09:13:45;5.53;;;4.55;;
19861;SDS011;10093;48.148;8.542;2022-12-07T09:16:11;6.57;;;5.25;;
19861;SDS011;10093;48.148;8.542;2022-12-07T09:18:37;5.93;;;5.03;;
19861;SDS011;10093;48.148;8.542;2022-12-07T09:21:03;5.03;;;4.30;;
19861;SDS011;10093;48.148;8.542;2022-12-07T09:23:29;9.38;;;7.60;;
19861;SDS011;10093;48.148;8.542;2022-12-07T09:25:54;7.20;;;5.25;;
19861;SDS011;10093;48.148;8.542;2022-12-07T09:28:23;9.15;;;7.88;;
19861;SDS011;10093;48.148;8.542;2022-12-07T09:30:49;18.52;;;13.70;;
19861;SDS011;10093;48.148;8.542;2022-12-07T09:33:15;16.17;;;11.40;;
19861;SDS011;10093;48.148;8.542;2022-12-07T09:35:47;8.40;;;6.88;;
19861;SDS011;10093;48.148;8.542;2022-12-07T09:38:13;5.10;;;4.25;;
19861;SDS011;10093;48.148;8.542;2022-12-07T09:40:40;4.70;;;3.67;;
19861;SDS011;10093;48.148;8.542;2022-12-07T09:43:41;3.75;;;3.25;;
19861;SDS011;10093;48.148;8.542;2022-12-07T09:46:01;3.20;;;2.90;;
19861;SDS011;10093;48.148;8.542;2022-12-07T09:48:31;4.80;;;4.28;;
19861;SDS011;10093;48.148;8.542;2022-12-07T09:51:00;4.03;;;3.28;;
19861;SDS011;10093;48.148;8.542;2022-12-07T09:53:27;7.85;;;7.03;;
19861;SDS011;10093;48.148;8.542;2022-12-07T09:55:58;3.50;;;3.10;;
19861;SDS011;10093;48.148;8.542;2022-12-07T09:58:25;5.35;;;4.65;;
19861;SDS011;10093;48.148;8.542;2022-12-07T10:00:56;8.65;;;7.75;;
19861;SDS011;10093;48.148;8.542;2022-12-07T10:03:26;3.72;;;3.08;;
19861;SDS011;10093;48.148;8.542;2022-12-07T10:05:53;4.35;;;3.90;;
19861;SDS011;10093;48.148;8.542;2022-12-07T10:08:19;12.60;;;10.13;;
19861;SDS011;10093;48.148;8.542;2022-12-07T10:10:46;5.10;;;4.60;;
19861;SDS011;10093;48.148;8.542;2022-12-07T10:13:19;6.25;;;4.00;;
19861;SDS011;10093;48.148;8.542;2022-12-07T10:15:48;2.42;;;2.17;;
19861;SDS011;10093;48.148;8.542;2022-12-07T10:18:33;16.15;;;12.00;;
19861;SDS011;10093;48.148;8.542;2022-12-07T10:21:13;2.30;;;2.10;;
19861;SDS011;10093;48.148;8.542;2022-12-07T10:37:07;2.08;;;1.77;;
19861;SDS011;10093;48.148;8.542;2022-12-07T10:42:15;0.80;;;0.80;;
19861;SDS011;10093;48.148;8.542;2022-12-07T10:44:41;1.33;;;1.20;;
19861;SDS011;10093;48.148;8.542;2022-12-07T10:52:53;1.65;;;1.55;;
19861;SDS011;10093;48.148;8.542;2022-12-07T10:55:33;1.65;;;1.40;;
19861;SDS011;10093;48.148;8.542;2022-12-07T10:58:16;2.17;;;1.48;;
19861;SDS011;10093;48.148;8.542;2022-12-07T11:01:13;2.38;;;1.67;;
19861;SDS011;10093;48.148;8.542;2022-12-07T11:07:07;1.58;;;1.48;;
19861;SDS011;10093;48.148;8.542;2022-12-07T11:18:45;2.20;;;1.67;;
19861;SDS011;10093;48.148;8.542;2022-12-07T11:24:11;1.50;;;1.40;;
19861;SDS011;10093;48.148;8.542;2022-12-07T11:29:20;1.73;;;1.63;;
19861;SDS011;10093;48.148;8.542;2022-12-07T11:31:58;0.95;;;0.93;;
19861;SDS011;10093;48.148;8.542;2022-12-07T11:37:27;2.50;;;1.60;;
19861;SDS011;10093;48.148;8.542;2022-12-07T11:39:59;1.60;;;1.35;;
19861;SDS011;10093;48.148;8.542;2022-12-07T11:42:29;1.52;;;1.30;;
19861;SDS011;10093;48.148;8.542;2022-12-07T11:45:15;1.45;;;0.98;;
19861;SDS011;10093;48.148;8.542;2022-12-07T11:47:48;4.38;;;1.13;;
19861;SDS011;10093;48.148;8.542;2022-12-07T11:52:58;1.48;;;1.00;;
19861;SDS011;10093;48.148;8.542;2022-12-07T11:55:37;1.00;;;0.90;;
19861;SDS011;10093;48.148;8.542;2022-12-07T12:00:55;1.00;;;0.90;;
19861;SDS011;10093;48.148;8.542;2022-12-07T12:03:33;1.38;;;1.25;;
19861;SDS011;10093;48.148;8.542;2022-12-07T12:06:03;0.60;;;0.57;;
19861;SDS011;10093;48.148;8.542;2022-12-07T12:08:32;0.60;;;0.57;;
19861;SDS011;10093;48.148;8.542;2022-12-07T12:11:30;0.73;;;0.60;;
19861;SDS011;10093;48.148;8.542;2022-12-07T12:20:16;4.28;;;3.05;;
19861;SDS011;10093;48.148;8.542;2022-12-07T12:22:55;0.60;;;0.60;;
19861;SDS011;10093;48.148;8.542;2022-12-07T12:28:15;1.17;;;0.80;;
19861;SDS011;10093;48.148;8.542;2022-12-07T12:33:56;0.70;;;0.70;;
19861;SDS011;10093;48.148;8.542;2022-12-07T12:51:43;0.98;;;0.73;;
19861;SDS011;10093;48.148;8.542;2022-12-07T12:54:14;1.15;;;0.65;;
19861;SDS011;10093;48.148;8.542;2022-12-07T12:59:22;0.85;;;0.60;;
19861;SDS011;10093;48.148;8.542;2022-12-07T13:01:50;0.80;;;0.70;;
19861;SDS011;10093;48.148;8.542;2022-12-07T13:04:27;0.65;;;0.60;;
19861;SDS011;10093;48.148;8.542;2022-12-07T13:15:33;0.98;;;0.85;;
19861;SDS011;10093;48.148;8.542;2022-12-07T13:18:02;1.25;;;1.15;;
19861;SDS011;10093;48.148;8.542;2022-12-07T13:23:16;1.38;;;1.27;;
19861;SDS011;10093;48.148;8.542;2022-12-07T13:25:48;2.15;;;1.60;;
19861;SDS011;10093;48.148;8.542;2022-12-07T13:28:37;1.75;;;1.35;;
19861;SDS011;10093;48.148;8.542;2022-12-07T13:31:11;2.17;;;1.98;;
19861;SDS011;10093;48.148;8.542;2022-12-07T13:33:45;2.78;;;1.88;;
19861;SDS011;10093;48.148;8.542;2022-12-07T13:36:22;2.20;;;1.88;;
19861;SDS011;10093;48.148;8.542;2022-12-07T13:38:55;1.02;;;1.00;;
19861;SDS011;10093;48.148;8.542;2022-12-07T13:41:28;1.00;;;0.85;;
19861;SDS011;10093;48.148;8.542;2022-12-07T13:49:21;1.23;;;1.13;;
19861;SDS011;10093;48.148;8.542;2022-12-07T13:51:49;0.70;;;0.70;;
19861;SDS011;10093;48.148;8.542;2022-12-07T13:54:15;2.33;;;0.52;;
19861;SDS011;10093;48.148;8.542;2022-12-07T13:56:41;0.70;;;0.50;;
19861;SDS011;10093;48.148;8.542;2022-12-07T13:59:12;1.13;;;0.98;;
19861;SDS011;10093;48.148;8.542;2022-12-07T14:01:49;1.10;;;0.80;;
19861;SDS011;10093;48.148;8.542;2022-12-07T14:04:17;1.08;;;0.98;;
19861;SDS011;10093;48.148;8.542;2022-12-07T14:06:50;0.80;;;0.70;;
19861;SDS011;10093;48.148;8.542;2022-12-07T14:09:17;1.10;;;0.80;;
19861;SDS011;10093;48.148;8.542;2022-12-07T14:11:48;1.17;;;0.75;;
19861;SDS011;10093;48.148;8.542;2022-12-07T14:14:18;1.63;;;1.20;;
19861;SDS011;10093;48.148;8.542;2022-12-07T14:20:28;1.27;;;1.00;;
19861;SDS011;10093;48.148;8.542;2022-12-07T14:24:58;0.80;;;0.80;;
19861;SDS011;10093;48.148;8.542;2022-12-07T14:27:29;1.42;;;1.13;;
19861;SDS011;10093;48.148;8.542;2022-12-07T14:30:00;1.30;;;1.00;;
19861;SDS011;10093;48.148;8.542;2022-12-07T14:32:27;1.05;;;0.95;;
19861;SDS011;10093;48.148;8.542;2022-12-07T14:37:20;2.50;;;2.30;;
19861;SDS011;10093;48.148;8.542;2022-12-07T14:39:46;1.98;;;1.50;;
19861;SDS011;10093;48.148;8.542;2022-12-07T14:42:12;1.73;;;1.50;;
19861;SDS011;10093;48.148;8.542;2022-12-07T14:44:37;4.28;;;3.30;;
19861;SDS011;10093;48.148;8.542;2022-12-07T14:47:03;3.40;;;1.80;;
19861;SDS011;10093;48.148;8.542;2022-12-07T14:49:28;3.95;;;2.90;;
19861;SDS011;10093;48.148;8.542;2022-12-07T14:51:54;1.73;;;1.60;;
19861;SDS011;10093;48.148;8.542;2022-12-07T14:54:20;1.65;;;1.50;;
19861;SDS011;10093;48.148;8.542;2022-12-07T14:56:47;3.17;;;2.08;;
19861;SDS011;10093;48.148;8.542;2022-12-07T14:59:16;2.13;;;1.92;;
19861;SDS011;10093;48.148;8.542;2022-12-07T15:01:42;2.58;;;2.30;;
19861;SDS011;10093;48.148;8.542;2022-12-07T15:04:08;3.40;;;2.45;;
19861;SDS011;10093;48.148;8.542;2022-12-07T15:06:33;3.05;;;2.75;;
19861;SDS011;10093;48.148;8.542;2022-12-07T15:08:59;4.10;;;3.35;;
19861;SDS011;10093;48.148;8.542;2022-12-07T15:11:25;1.25;;;1.13;;
19861;SDS011;10093;48.148;8.542;2022-12-07T15:13:50;0.90;;;0.85;;
19861;SDS011;10093;48.148;8.542;2022-12-07T15:16:36;4.40;;;3.70;;
19861;SDS011;10093;48.148;8.542;2022-12-07T15:19:04;1.70;;;1.55;;
19861;SDS011;10093;48.148;8.542;2022-12-07T15:21:30;2.47;;;1.48;;
19861;SDS011;10093;48.148;8.542;2022-12-07T15:23:56;1.42;;;0.85;;
19861;SDS011;10093;48.148;8.542;2022-12-07T15:26:22;1.20;;;0.93;;
19861;SDS011;10093;48.148;8.542;2022-12-07T15:28:47;3.53;;;0.80;;
19861;SDS011;10093;48.148;8.542;2022-12-07T15:31:13;24.63;;;11.73;;
19861;SDS011;10093;48.148;8.542;2022-12-07T15:33:40;28.80;;;15.60;;
19861;SDS011;10093;48.148;8.542;2022-12-07T15:36:07;25.40;;;14.30;;
19861;SDS011;10093;48.148;8.542;2022-12-07T15:38:33;8.07;;;4.35;;
19861;SDS011;10093;48.148;8.542;2022-12-07T15:40:58;2.10;;;1.70;;
19861;SDS011;10093;48.148;8.542;2022-12-07T15:43:24;3.35;;;3.05;;
19861;SDS011;10093;48.148;8.542;2022-12-07T15:46:08;1.20;;;1.00;;
19861;SDS011;10093;48.148;8.542;2022-12-07T15:48:34;2.63;;;1.80;;
19861;SDS011;10093;48.148;8.542;2022-12-07T15:51:06;11.65;;;9.43;;
19861;SDS011;10093;48.148;8.542;2022-12-07T15:53:34;8.93;;;6.90;;
19861;SDS011;10093;48.148;8.542;2022-12-07T15:56:00;7.20;;;5.90;;
19861;SDS011;10093;48.148;8.542;2022-12-07T15:58:30;3.30;;;2.92;;
19861;SDS011;10093;48.148;8.542;2022-12-07T16:00:59;5.45;;;4.85;;
19861;SDS011;10093;48.148;8.542;2022-12-07T16:03:27;6.97;;;3.80;;
19861;SDS011;10093;48.148;8.542;2022-12-07T16:05:53;8.45;;;4.95;;
19861;SDS011;10093;48.148;8.542;2022-12-07T16:08:19;5.25;;;3.30;;
19861;SDS011;10093;48.148;8.542;2022-12-07T16:10:44;39.42;;;16.50;;
19861;SDS011;10093;48.148;8.542;2022-12-07T16:13:11;29.20;;;11.43;;
19861;SDS011;10093;48.148;8.542;2022-12-07T16:15:40;10.50;;;5.45;;
19861;SDS011;10093;48.148;8.542;2022-12-07T16:18:06;5.45;;;3.63;;
19861;SDS011;10093;48.148;8.542;2022-12-07T16:20:35;8.70;;;3.90;;
19861;SDS011;10093;48.148;8.542;2022-12-07T16:23:00;3.92;;;2.50;;
19861;SDS011;10093;48.148;8.542;2022-12-07T16:25:27;2.58;;;1.67;;
19861;SDS011;10093;48.148;8.542;2022-12-07T16:27:52;1.95;;;1.40;;
19861;SDS011;10093;48.148;8.542;2022-12-07T16:30:18;2.58;;;1.83;;
19861;SDS011;10093;48.148;8.542;2022-12-07T16:32:44;3.20;;;1.80;;
19861;SDS011;10093;48.148;8.542;2022-12-07T16:35:10;2.97;;;1.70;;
19861;SDS011;10093;48.148;8.542;2022-12-07T16:37:36;2.13;;;1.70;;
19861;SDS011;10093;48.148;8.542;2022-12-07T16:40:02;2.63;;;1.95;;
19861;SDS011;10093;48.148;8.542;2022-12-07T16:42:32;2.90;;;2.15;;
19861;SDS011;10093;48.148;8.542;2022-12-07T16:44:58;2.58;;;1.98;;
19861;SDS011;10093;48.148;8.542;2022-12-07T16:47:24;3.90;;;2.58;;
19861;SDS011;10093;48.148;8.542;2022-12-07T16:49:49;4.35;;;2.50;;
19861;SDS011;10093;48.148;8.542;2022-12-07T16:52:17;3.55;;;2.50;;
19861;SDS011;10093;48.148;8.542;2022-12-07T16:54:43;3.92;;;2.80;;
19861;SDS011;10093;48.148;8.542;2022-12-07T16:57:09;4.35;;;2.63;;
19861;SDS011;10093;48.148;8.542;2022-12-07T16:59:35;5.07;;;3.00;;
19861;SDS011;10093;48.148;8.542;2022-12-07T17:02:00;4.35;;;3.17;;
19861;SDS011;10093;48.148;8.542;2022-12-07T17:04:27;5.10;;;3.42;;
19861;SDS011;10093;48.148;8.542;2022-12-07T17:06:53;5.82;;;3.83;;
19861;SDS011;10093;48.148;8.542;2022-12-07T17:09:18;6.22;;;4.15;;